sensor_id;sensor_type;location;lat;lon;timestamp;P1;durP1;ratioP1;P2;durP2;ratioP2
33190;SDS011;19554;42.652;23.364;2023-04-03T00:01:18;11.35;;;5.25;;
33190;SDS011;19554;42.652;23.364;2023-04-03T00:03:44;11.73;;;5.18;;
33190;SDS011;19554;42.652;23.364;2023-04-03T00:06:10;12.18;;;5.90;;
33190;SDS011;19554;42.652;23.364;2023-04-03T00:08:37;13.68;;;6.28;;
33190;SDS011;19554;42.652;23.364;2023-04-03T00:11:03;9.73;;;4.60;;
33190;SDS011;19554;42.652;23.364;2023-04-03T00:13:29;9.55;;;4.30;;
33190;SDS011;19554;42.652;23.364;2023-04-03T00:15:55;8.50;;;4.40;;
33190;SDS011;19554;42.652;23.364;2023-04-03T00:18:20;6.07;;;3.92;;
33190;SDS011;19554;42.652;23.364;2023-04-03T00:20:46;5.75;;;3.97;;
33190;SDS011;19554;42.652;23.364;2023-04-03T00:23:11;8.75;;;3.95;;
33190;SDS011;19554;42.652;23.364;2023-04-03T00:25:37;11.38;;;5.93;;
33190;SDS011;19554;42.652;23.364;2023-04-03T00:28:03;10.13;;;5.40;;
33190;SDS011;19554;42.652;23.364;2023-04-03T00:30:29;8.73;;;5.15;;
33190;SDS011;19554;42.652;23.364;2023-04-03T00:32:56;8.40;;;5.20;;
33190;SDS011;19554;42.652;23.364;2023-04-03T00:35:21;6.57;;;4.13;;
33190;SDS011;19554;42.652;23.364;2023-04-03T00:37:50;8.95;;;4.20;;
33190;SDS011;19554;42.652;23.364;2023-04-03T00:40:16;5.13;;;3.33;;
33190;SDS011;19554;42.652;23.364;2023-04-03T00:42:42;4.53;;;3.00;;
33190;SDS011;19554;42.652;23.364;2023-04-03T00:47:36;8.07;;;3.63;;
33190;SDS011;19554;42.652;23.364;2023-04-03T00:50:04;6.93;;;3.63;;
33190;SDS011;19554;42.652;23.364;2023-04-03T00:52:30;9.02;;;4.03;;
33190;SDS011;19554;42.652;23.364;2023-04-03T00:55:00;11.48;;;4.53;;
33190;SDS011;19554;42.652;23.364;2023-04-03T00:57:29;10.95;;;4.40;;
33190;SDS011;19554;42.652;23.364;2023-04-03T00:59:57;9.57;;;4.95;;
33190;SDS011;19554;42.652;23.364;2023-04-03T01:02:28;10.75;;;5.25;;
33190;SDS011;19554;42.652;23.364;2023-04-03T01:04:53;7.70;;;4.50;;
33190;SDS011;19554;42.652;23.364;2023-04-03T01:07:22;6.80;;;4.63;;
33190;SDS011;19554;42.652;23.364;2023-04-03T01:09:52;8.38;;;3.47;;
33190;SDS011;19554;42.652;23.364;2023-04-03T01:14:53;10.38;;;3.80;;
33190;SDS011;19554;42.652;23.364;2023-04-03T01:19:57;7.40;;;4.00;;
33190;SDS011;19554;42.652;23.364;2023-04-03T01:25:11;11.45;;;4.35;;
33190;SDS011;19554;42.652;23.364;2023-04-03T01:27:36;8.32;;;4.07;;
33190;SDS011;19554;42.652;23.364;2023-04-03T01:30:02;7.90;;;4.38;;
33190;SDS011;19554;42.652;23.364;2023-04-03T01:32:27;8.68;;;4.50;;
33190;SDS011;19554;42.652;23.364;2023-04-03T01:34:53;7.90;;;4.10;;
33190;SDS011;19554;42.652;23.364;2023-04-03T01:37:18;10.20;;;4.38;;
33190;SDS011;19554;42.652;23.364;2023-04-03T01:39:43;11.30;;;4.60;;
33190;SDS011;19554;42.652;23.364;2023-04-03T01:42:09;12.57;;;6.38;;
33190;SDS011;19554;42.652;23.364;2023-04-03T01:44:36;11.15;;;5.60;;
33190;SDS011;19554;42.652;23.364;2023-04-03T01:47:01;10.68;;;5.20;;
33190;SDS011;19554;42.652;23.364;2023-04-03T01:49:30;12.88;;;4.57;;
33190;SDS011;19554;42.652;23.364;2023-04-03T01:51:55;10.30;;;4.95;;
33190;SDS011;19554;42.652;23.364;2023-04-03T01:54:20;10.50;;;5.07;;
33190;SDS011;19554;42.652;23.364;2023-04-03T01:56:46;6.35;;;3.67;;
33190;SDS011;19554;42.652;23.364;2023-04-03T01:59:11;10.88;;;3.67;;
33190;SDS011;19554;42.652;23.364;2023-04-03T02:01:37;6.30;;;3.78;;
33190;SDS011;19554;42.652;23.364;2023-04-03T02:04:02;10.15;;;4.85;;
33190;SDS011;19554;42.652;23.364;2023-04-03T02:06:27;5.50;;;3.95;;
33190;SDS011;19554;42.652;23.364;2023-04-03T02:08:53;5.78;;;3.58;;
33190;SDS011;19554;42.652;23.364;2023-04-03T02:11:18;7.65;;;3.83;;
33190;SDS011;19554;42.652;23.364;2023-04-03T02:13:43;6.60;;;3.50;;
33190;SDS011;19554;42.652;23.364;2023-04-03T02:16:09;6.65;;;3.60;;
33190;SDS011;19554;42.652;23.364;2023-04-03T02:18:36;7.18;;;3.70;;
33190;SDS011;19554;42.652;23.364;2023-04-03T02:21:01;5.63;;;3.63;;
33190;SDS011;19554;42.652;23.364;2023-04-03T02:23:27;7.43;;;4.35;;
33190;SDS011;19554;42.652;23.364;2023-04-03T02:25:52;6.60;;;4.70;;
33190;SDS011;19554;42.652;23.364;2023-04-03T02:28:18;10.63;;;4.65;;
33190;SDS011;19554;42.652;23.364;2023-04-03T02:30:43;12.05;;;4.20;;
33190;SDS011;19554;42.652;23.364;2023-04-03T02:33:08;5.22;;;3.70;;
33190;SDS011;19554;42.652;23.364;2023-04-03T02:35:34;6.20;;;4.10;;
33190;SDS011;19554;42.652;23.364;2023-04-03T02:37:59;6.47;;;3.50;;
33190;SDS011;19554;42.652;23.364;2023-04-03T02:40:25;8.57;;;3.67;;
33190;SDS011;19554;42.652;23.364;2023-04-03T02:42:50;6.60;;;3.30;;
33190;SDS011;19554;42.652;23.364;2023-04-03T02:45:15;7.72;;;3.15;;
33190;SDS011;19554;42.652;23.364;2023-04-03T02:47:41;9.55;;;3.15;;
33190;SDS011;19554;42.652;23.364;2023-04-03T02:50:06;4.88;;;3.15;;
33190;SDS011;19554;42.652;23.364;2023-04-03T02:52:32;7.85;;;3.22;;
33190;SDS011;19554;42.652;23.364;2023-04-03T02:54:57;5.78;;;3.40;;
33190;SDS011;19554;42.652;23.364;2023-04-03T02:57:23;6.40;;;3.13;;
33190;SDS011;19554;42.652;23.364;2023-04-03T02:59:48;6.05;;;3.45;;
33190;SDS011;19554;42.652;23.364;2023-04-03T03:02:13;9.70;;;3.42;;
33190;SDS011;19554;42.652;23.364;2023-04-03T03:04:39;9.07;;;3.70;;
33190;SDS011;19554;42.652;23.364;2023-04-03T03:07:04;11.65;;;4.30;;
33190;SDS011;19554;42.652;23.364;2023-04-03T03:09:29;8.52;;;3.90;;
33190;SDS011;19554;42.652;23.364;2023-04-03T03:11:55;9.68;;;4.05;;
33190;SDS011;19554;42.652;23.364;2023-04-03T03:14:21;15.55;;;3.85;;
33190;SDS011;19554;42.652;23.364;2023-04-03T03:16:47;10.82;;;3.58;;
33190;SDS011;19554;42.652;23.364;2023-04-03T03:19:12;7.85;;;3.70;;
33190;SDS011;19554;42.652;23.364;2023-04-03T03:21:37;11.70;;;4.45;;
33190;SDS011;19554;42.652;23.364;2023-04-03T03:24:03;10.60;;;4.13;;
33190;SDS011;19554;42.652;23.364;2023-04-03T03:26:28;9.05;;;4.28;;
33190;SDS011;19554;42.652;23.364;2023-04-03T03:28:54;7.80;;;3.95;;
33190;SDS011;19554;42.652;23.364;2023-04-03T03:31:19;11.55;;;4.22;;
33190;SDS011;19554;42.652;23.364;2023-04-03T03:33:45;8.32;;;3.42;;
33190;SDS011;19554;42.652;23.364;2023-04-03T03:36:11;8.35;;;4.18;;
33190;SDS011;19554;42.652;23.364;2023-04-03T03:38:36;8.93;;;4.35;;
33190;SDS011;19554;42.652;23.364;2023-04-03T03:41:02;8.00;;;3.58;;
33190;SDS011;19554;42.652;23.364;2023-04-03T03:43:27;9.40;;;3.58;;
33190;SDS011;19554;42.652;23.364;2023-04-03T03:45:53;6.47;;;3.53;;
33190;SDS011;19554;42.652;23.364;2023-04-03T03:48:19;9.82;;;4.82;;
33190;SDS011;19554;42.652;23.364;2023-04-03T03:50:46;16.30;;;5.38;;
33190;SDS011;19554;42.652;23.364;2023-04-03T03:53:11;8.20;;;4.85;;
33190;SDS011;19554;42.652;23.364;2023-04-03T03:55:37;16.23;;;5.45;;
33190;SDS011;19554;42.652;23.364;2023-04-03T03:58:02;12.10;;;6.40;;
33190;SDS011;19554;42.652;23.364;2023-04-03T04:00:28;25.77;;;9.38;;
33190;SDS011;19554;42.652;23.364;2023-04-03T04:02:54;19.10;;;7.13;;
33190;SDS011;19554;42.652;23.364;2023-04-03T04:05:20;12.25;;;6.28;;
33190;SDS011;19554;42.652;23.364;2023-04-03T04:07:46;14.48;;;6.30;;
33190;SDS011;19554;42.652;23.364;2023-04-03T04:10:11;17.05;;;6.70;;
33190;SDS011;19554;42.652;23.364;2023-04-03T04:12:38;21.85;;;6.65;;
33190;SDS011;19554;42.652;23.364;2023-04-03T04:15:04;23.95;;;7.05;;
33190;SDS011;19554;42.652;23.364;2023-04-03T04:17:30;27.13;;;8.23;;
33190;SDS011;19554;42.652;23.364;2023-04-03T04:19:55;28.13;;;8.68;;
33190;SDS011;19554;42.652;23.364;2023-04-03T04:22:21;24.92;;;9.60;;
33190;SDS011;19554;42.652;23.364;2023-04-03T04:24:46;26.85;;;10.73;;
33190;SDS011;19554;42.652;23.364;2023-04-03T04:27:11;31.70;;;10.07;;
33190;SDS011;19554;42.652;23.364;2023-04-03T04:29:37;28.15;;;8.52;;
33190;SDS011;19554;42.652;23.364;2023-04-03T04:32:02;24.92;;;8.27;;
33190;SDS011;19554;42.652;23.364;2023-04-03T04:34:28;22.27;;;7.03;;
33190;SDS011;19554;42.652;23.364;2023-04-03T04:36:54;20.63;;;7.20;;
33190;SDS011;19554;42.652;23.364;2023-04-03T04:39:20;11.52;;;6.20;;
33190;SDS011;19554;42.652;23.364;2023-04-03T04:41:45;14.05;;;5.78;;
33190;SDS011;19554;42.652;23.364;2023-04-03T04:44:10;21.55;;;5.10;;
33190;SDS011;19554;42.652;23.364;2023-04-03T04:46:36;20.77;;;6.00;;
33190;SDS011;19554;42.652;23.364;2023-04-03T04:49:01;18.75;;;5.82;;
33190;SDS011;19554;42.652;23.364;2023-04-03T04:51:26;25.45;;;5.97;;
33190;SDS011;19554;42.652;23.364;2023-04-03T04:53:52;17.95;;;6.47;;
33190;SDS011;19554;42.652;23.364;2023-04-03T04:56:17;25.67;;;7.43;;
33190;SDS011;19554;42.652;23.364;2023-04-03T04:58:43;22.83;;;7.43;;
33190;SDS011;19554;42.652;23.364;2023-04-03T05:01:09;20.30;;;7.15;;
33190;SDS011;19554;42.652;23.364;2023-04-03T05:03:35;18.10;;;7.47;;
33190;SDS011;19554;42.652;23.364;2023-04-03T05:06:01;40.65;;;12.93;;
33190;SDS011;19554;42.652;23.364;2023-04-03T05:08:26;15.75;;;6.97;;
33190;SDS011;19554;42.652;23.364;2023-04-03T05:10:52;13.13;;;6.47;;
33190;SDS011;19554;42.652;23.364;2023-04-03T05:13:18;34.97;;;24.75;;
33190;SDS011;19554;42.652;23.364;2023-04-03T05:15:43;30.65;;;17.13;;
33190;SDS011;19554;42.652;23.364;2023-04-03T05:18:09;40.13;;;14.65;;
33190;SDS011;19554;42.652;23.364;2023-04-03T05:20:34;35.65;;;12.05;;
33190;SDS011;19554;42.652;23.364;2023-04-03T05:23:00;28.92;;;10.57;;
33190;SDS011;19554;42.652;23.364;2023-04-03T05:25:25;22.85;;;9.32;;
33190;SDS011;19554;42.652;23.364;2023-04-03T05:27:51;20.92;;;9.90;;
33190;SDS011;19554;42.652;23.364;2023-04-03T05:30:16;29.98;;;9.63;;
33190;SDS011;19554;42.652;23.364;2023-04-03T05:32:42;34.42;;;10.57;;
33190;SDS011;19554;42.652;23.364;2023-04-03T05:35:08;51.58;;;13.00;;
33190;SDS011;19554;42.652;23.364;2023-04-03T05:37:34;53.00;;;12.55;;
33190;SDS011;19554;42.652;23.364;2023-04-03T05:39:59;43.95;;;11.40;;
33190;SDS011;19554;42.652;23.364;2023-04-03T05:42:25;43.50;;;11.40;;
33190;SDS011;19554;42.652;23.364;2023-04-03T05:44:51;50.67;;;12.88;;
33190;SDS011;19554;42.652;23.364;2023-04-03T05:47:17;33.95;;;10.70;;
33190;SDS011;19554;42.652;23.364;2023-04-03T05:49:43;26.65;;;9.60;;
33190;SDS011;19554;42.652;23.364;2023-04-03T05:52:24;27.35;;;10.75;;
33190;SDS011;19554;42.652;23.364;2023-04-03T05:54:52;28.73;;;10.15;;
33190;SDS011;19554;42.652;23.364;2023-04-03T05:57:18;30.77;;;10.63;;
33190;SDS011;19554;42.652;23.364;2023-04-03T05:59:44;29.05;;;11.05;;
33190;SDS011;19554;42.652;23.364;2023-04-03T06:02:12;22.98;;;10.35;;
33190;SDS011;19554;42.652;23.364;2023-04-03T06:04:38;27.98;;;9.60;;
33190;SDS011;19554;42.652;23.364;2023-04-03T06:07:04;28.50;;;10.82;;
33190;SDS011;19554;42.652;23.364;2023-04-03T06:09:30;26.30;;;11.55;;
33190;SDS011;19554;42.652;23.364;2023-04-03T06:11:55;33.28;;;12.75;;
33190;SDS011;19554;42.652;23.364;2023-04-03T06:14:23;28.95;;;11.82;;
33190;SDS011;19554;42.652;23.364;2023-04-03T06:16:50;22.08;;;11.45;;
33190;SDS011;19554;42.652;23.364;2023-04-03T06:19:16;31.40;;;11.25;;
33190;SDS011;19554;42.652;23.364;2023-04-03T06:21:41;26.45;;;11.40;;
33190;SDS011;19554;42.652;23.364;2023-04-03T06:24:07;30.70;;;12.05;;
33190;SDS011;19554;42.652;23.364;2023-04-03T06:26:33;25.08;;;12.23;;
33190;SDS011;19554;42.652;23.364;2023-04-03T06:28:59;21.67;;;10.90;;
33190;SDS011;19554;42.652;23.364;2023-04-03T06:31:25;27.88;;;10.57;;
33190;SDS011;19554;42.652;23.364;2023-04-03T06:33:51;25.98;;;10.25;;
33190;SDS011;19554;42.652;23.364;2023-04-03T06:36:17;28.25;;;10.60;;
33190;SDS011;19554;42.652;23.364;2023-04-03T06:38:47;18.27;;;10.50;;
33190;SDS011;19554;42.652;23.364;2023-04-03T06:41:13;20.25;;;10.38;;
33190;SDS011;19554;42.652;23.364;2023-04-03T06:43:39;19.60;;;9.75;;
33190;SDS011;19554;42.652;23.364;2023-04-03T06:46:05;24.55;;;9.20;;
33190;SDS011;19554;42.652;23.364;2023-04-03T06:48:30;25.00;;;8.43;;
33190;SDS011;19554;42.652;23.364;2023-04-03T06:50:56;17.70;;;7.63;;
33190;SDS011;19554;42.652;23.364;2023-04-03T06:53:22;27.30;;;8.40;;
33190;SDS011;19554;42.652;23.364;2023-04-03T06:55:47;20.00;;;8.68;;
33190;SDS011;19554;42.652;23.364;2023-04-03T06:58:13;18.50;;;7.20;;
33190;SDS011;19554;42.652;23.364;2023-04-03T07:00:40;16.70;;;6.97;;
33190;SDS011;19554;42.652;23.364;2023-04-03T07:03:06;21.60;;;7.80;;
33190;SDS011;19554;42.652;23.364;2023-04-03T07:05:31;18.88;;;8.02;;
33190;SDS011;19554;42.652;23.364;2023-04-03T07:07:57;34.38;;;10.05;;
33190;SDS011;19554;42.652;23.364;2023-04-03T07:10:22;18.80;;;8.60;;
33190;SDS011;19554;42.652;23.364;2023-04-03T07:12:48;18.90;;;9.55;;
33190;SDS011;19554;42.652;23.364;2023-04-03T07:15:13;19.88;;;9.77;;
33190;SDS011;19554;42.652;23.364;2023-04-03T07:17:39;29.08;;;9.75;;
33190;SDS011;19554;42.652;23.364;2023-04-03T07:20:05;21.38;;;9.38;;
33190;SDS011;19554;42.652;23.364;2023-04-03T07:22:32;19.50;;;10.48;;
33190;SDS011;19554;42.652;23.364;2023-04-03T07:24:57;28.88;;;13.02;;
33190;SDS011;19554;42.652;23.364;2023-04-03T07:27:24;28.50;;;12.80;;
33190;SDS011;19554;42.652;23.364;2023-04-03T07:29:50;26.38;;;12.55;;
33190;SDS011;19554;42.652;23.364;2023-04-03T07:32:15;29.98;;;12.18;;
33190;SDS011;19554;42.652;23.364;2023-04-03T07:34:41;28.40;;;11.88;;
33190;SDS011;19554;42.652;23.364;2023-04-03T07:37:07;24.35;;;12.07;;
33190;SDS011;19554;42.652;23.364;2023-04-03T07:39:34;30.70;;;13.40;;
33190;SDS011;19554;42.652;23.364;2023-04-03T07:41:59;28.55;;;14.18;;
33190;SDS011;19554;42.652;23.364;2023-04-03T07:44:25;23.30;;;11.93;;
33190;SDS011;19554;42.652;23.364;2023-04-03T07:46:51;27.70;;;14.23;;
33190;SDS011;19554;42.652;23.364;2023-04-03T07:49:17;34.85;;;16.25;;
33190;SDS011;19554;42.652;23.364;2023-04-03T07:51:48;32.88;;;16.88;;
33190;SDS011;19554;42.652;23.364;2023-04-03T07:54:13;38.80;;;18.73;;
33190;SDS011;19554;42.652;23.364;2023-04-03T07:56:39;33.95;;;17.85;;
33190;SDS011;19554;42.652;23.364;2023-04-03T07:59:04;42.55;;;20.00;;
33190;SDS011;19554;42.652;23.364;2023-04-03T08:01:30;41.92;;;19.33;;
33190;SDS011;19554;42.652;23.364;2023-04-03T08:03:57;39.28;;;19.33;;
33190;SDS011;19554;42.652;23.364;2023-04-03T08:06:23;39.05;;;20.65;;
33190;SDS011;19554;42.652;23.364;2023-04-03T08:08:48;43.90;;;19.48;;
33190;SDS011;19554;42.652;23.364;2023-04-03T08:11:13;42.92;;;19.05;;
33190;SDS011;19554;42.652;23.364;2023-04-03T08:13:39;34.28;;;18.85;;
33190;SDS011;19554;42.652;23.364;2023-04-03T08:16:10;41.08;;;19.30;;
33190;SDS011;19554;42.652;23.364;2023-04-03T08:18:36;34.95;;;19.13;;
33190;SDS011;19554;42.652;23.364;2023-04-03T08:21:05;36.83;;;19.05;;
33190;SDS011;19554;42.652;23.364;2023-04-03T08:23:31;37.85;;;19.52;;
33190;SDS011;19554;42.652;23.364;2023-04-03T08:25:56;36.97;;;18.52;;
33190;SDS011;19554;42.652;23.364;2023-04-03T08:28:22;35.85;;;17.40;;
33190;SDS011;19554;42.652;23.364;2023-04-03T08:30:47;41.78;;;18.33;;
33190;SDS011;19554;42.652;23.364;2023-04-03T08:33:12;37.08;;;18.50;;
33190;SDS011;19554;42.652;23.364;2023-04-03T08:35:39;35.25;;;17.75;;
33190;SDS011;19554;42.652;23.364;2023-04-03T08:38:05;34.63;;;17.35;;
33190;SDS011;19554;42.652;23.364;2023-04-03T08:40:31;39.58;;;18.55;;
33190;SDS011;19554;42.652;23.364;2023-04-03T08:45:38;29.20;;;16.92;;
33190;SDS011;19554;42.652;23.364;2023-04-03T08:48:15;35.50;;;18.80;;
33190;SDS011;19554;42.652;23.364;2023-04-03T08:50:46;32.90;;;15.68;;
33190;SDS011;19554;42.652;23.364;2023-04-03T08:53:15;31.90;;;15.20;;
33190;SDS011;19554;42.652;23.364;2023-04-03T08:55:45;26.95;;;14.40;;
33190;SDS011;19554;42.652;23.364;2023-04-03T08:58:16;31.10;;;16.00;;
33190;SDS011;19554;42.652;23.364;2023-04-03T09:00:46;32.10;;;15.10;;
33190;SDS011;19554;42.652;23.364;2023-04-03T09:03:19;42.53;;;15.38;;
33190;SDS011;19554;42.652;23.364;2023-04-03T09:08:24;47.42;;;14.80;;
33190;SDS011;19554;42.652;23.364;2023-04-03T09:13:57;31.23;;;11.07;;
33190;SDS011;19554;42.652;23.364;2023-04-03T09:22:01;18.27;;;11.27;;
33190;SDS011;19554;42.652;23.364;2023-04-03T09:24:27;24.85;;;13.02;;
33190;SDS011;19554;42.652;23.364;2023-04-03T09:26:58;26.70;;;10.93;;
33190;SDS011;19554;42.652;23.364;2023-04-03T09:29:35;22.58;;;11.65;;
33190;SDS011;19554;42.652;23.364;2023-04-03T09:32:15;20.83;;;10.45;;
33190;SDS011;19554;42.652;23.364;2023-04-03T09:34:46;18.88;;;9.57;;
33190;SDS011;19554;42.652;23.364;2023-04-03T09:37:34;14.65;;;7.25;;
33190;SDS011;19554;42.652;23.364;2023-04-03T09:40:27;14.25;;;8.65;;
33190;SDS011;19554;42.652;23.364;2023-04-03T09:42:59;12.23;;;7.75;;
33190;SDS011;19554;42.652;23.364;2023-04-03T09:45:33;18.67;;;8.13;;
33190;SDS011;19554;42.652;23.364;2023-04-03T09:51:00;9.85;;;4.88;;
33190;SDS011;19554;42.652;23.364;2023-04-03T09:56:02;4.10;;;2.88;;
33190;SDS011;19554;42.652;23.364;2023-04-03T10:04:16;9.30;;;4.40;;
33190;SDS011;19554;42.652;23.364;2023-04-03T10:06:44;12.88;;;4.50;;
33190;SDS011;19554;42.652;23.364;2023-04-03T10:09:28;10.00;;;3.47;;
33190;SDS011;19554;42.652;23.364;2023-04-03T10:12:10;8.15;;;4.00;;
33190;SDS011;19554;42.652;23.364;2023-04-03T10:14:40;12.13;;;5.03;;
33190;SDS011;19554;42.652;23.364;2023-04-03T10:20:07;7.90;;;4.70;;
33190;SDS011;19554;42.652;23.364;2023-04-03T10:23:14;7.45;;;5.07;;
33190;SDS011;19554;42.652;23.364;2023-04-03T10:26:25;9.00;;;4.50;;
33190;SDS011;19554;42.652;23.364;2023-04-03T10:28:52;9.05;;;4.70;;
33190;SDS011;19554;42.652;23.364;2023-04-03T10:42:28;7.85;;;3.60;;
33190;SDS011;19554;42.652;23.364;2023-04-03T10:45:15;7.90;;;3.88;;
33190;SDS011;19554;42.652;23.364;2023-04-03T10:50:43;9.05;;;3.22;;
33190;SDS011;19554;42.652;23.364;2023-04-03T11:05:01;7.43;;;3.10;;
33190;SDS011;19554;42.652;23.364;2023-04-03T11:07:43;6.43;;;2.65;;
33190;SDS011;19554;42.652;23.364;2023-04-03T11:10:17;4.70;;;2.88;;
33190;SDS011;19554;42.652;23.364;2023-04-03T11:12:49;6.95;;;3.28;;
33190;SDS011;19554;42.652;23.364;2023-04-03T11:15:30;6.55;;;3.03;;
33190;SDS011;19554;42.652;23.364;2023-04-03T11:17:58;3.60;;;2.88;;
33190;SDS011;19554;42.652;23.364;2023-04-03T11:20:32;5.97;;;3.35;;
33190;SDS011;19554;42.652;23.364;2023-04-03T11:25:53;5.28;;;3.92;;
33190;SDS011;19554;42.652;23.364;2023-04-03T11:28:32;7.65;;;3.72;;
33190;SDS011;19554;42.652;23.364;2023-04-03T11:34:36;5.18;;;3.72;;
33190;SDS011;19554;42.652;23.364;2023-04-03T11:37:39;8.57;;;3.65;;
33190;SDS011;19554;42.652;23.364;2023-04-03T11:40:06;7.20;;;4.07;;
33190;SDS011;19554;42.652;23.364;2023-04-03T11:43:04;7.47;;;3.83;;
33190;SDS011;19554;42.652;23.364;2023-04-03T11:50:44;6.40;;;3.42;;
33190;SDS011;19554;42.652;23.364;2023-04-03T11:58:20;7.90;;;4.35;;
33190;SDS011;19554;42.652;23.364;2023-04-03T12:01:05;7.13;;;4.50;;
33190;SDS011;19554;42.652;23.364;2023-04-03T12:03:55;7.28;;;4.35;;
33190;SDS011;19554;42.652;23.364;2023-04-03T12:09:00;5.75;;;3.90;;
33190;SDS011;19554;42.652;23.364;2023-04-03T12:11:29;8.55;;;4.68;;
33190;SDS011;19554;42.652;23.364;2023-04-03T12:45:22;5.72;;;4.38;;
33190;SDS011;19554;42.652;23.364;2023-04-03T12:47:49;8.65;;;4.82;;
33190;SDS011;19554;42.652;23.364;2023-04-03T12:50:24;8.85;;;4.88;;
33190;SDS011;19554;42.652;23.364;2023-04-03T12:53:04;7.57;;;5.25;;
33190;SDS011;19554;42.652;23.364;2023-04-03T12:55:31;7.28;;;4.78;;
33190;SDS011;19554;42.652;23.364;2023-04-03T12:57:56;7.88;;;4.88;;
33190;SDS011;19554;42.652;23.364;2023-04-03T13:00:27;7.13;;;4.15;;
33190;SDS011;19554;42.652;23.364;2023-04-03T13:02:54;6.00;;;4.55;;
33190;SDS011;19554;42.652;23.364;2023-04-03T13:05:27;9.85;;;4.72;;
33190;SDS011;19554;42.652;23.364;2023-04-03T13:08:01;13.70;;;4.90;;
33190;SDS011;19554;42.652;23.364;2023-04-03T13:10:35;8.45;;;4.60;;
33190;SDS011;19554;42.652;23.364;2023-04-03T13:13:14;7.00;;;4.43;;
33190;SDS011;19554;42.652;23.364;2023-04-03T13:15:44;8.07;;;4.85;;
33190;SDS011;19554;42.652;23.364;2023-04-03T13:20:49;6.65;;;4.78;;
33190;SDS011;19554;42.652;23.364;2023-04-03T13:23:16;6.60;;;4.35;;
33190;SDS011;19554;42.652;23.364;2023-04-03T13:25:45;8.63;;;5.57;;
33190;SDS011;19554;42.652;23.364;2023-04-03T13:28:13;6.47;;;5.25;;
33190;SDS011;19554;42.652;23.364;2023-04-03T13:30:54;11.27;;;6.07;;
33190;SDS011;19554;42.652;23.364;2023-04-03T13:33:24;9.13;;;5.45;;
33190;SDS011;19554;42.652;23.364;2023-04-03T13:36:00;12.27;;;5.53;;
33190;SDS011;19554;42.652;23.364;2023-04-03T13:38:29;8.18;;;5.72;;
33190;SDS011;19554;42.652;23.364;2023-04-03T13:40:58;7.95;;;5.47;;
33190;SDS011;19554;42.652;23.364;2023-04-03T13:43:31;11.43;;;6.03;;
33190;SDS011;19554;42.652;23.364;2023-04-03T13:46:01;8.88;;;6.53;;
33190;SDS011;19554;42.652;23.364;2023-04-03T13:48:43;10.73;;;6.80;;
33190;SDS011;19554;42.652;23.364;2023-04-03T13:59:40;8.82;;;6.30;;
33190;SDS011;19554;42.652;23.364;2023-04-03T14:04:25;6.65;;;5.00;;
33190;SDS011;19554;42.652;23.364;2023-04-03T14:06:53;7.70;;;5.40;;
33190;SDS011;19554;42.652;23.364;2023-04-03T14:09:20;9.15;;;6.78;;
33190;SDS011;19554;42.652;23.364;2023-04-03T14:11:48;10.10;;;7.05;;
33190;SDS011;19554;42.652;23.364;2023-04-03T14:14:20;9.30;;;6.57;;
33190;SDS011;19554;42.652;23.364;2023-04-03T14:16:52;7.97;;;6.30;;
33190;SDS011;19554;42.652;23.364;2023-04-03T14:19:22;11.25;;;7.45;;
33190;SDS011;19554;42.652;23.364;2023-04-03T14:21:50;9.25;;;6.63;;
33190;SDS011;19554;42.652;23.364;2023-04-03T14:24:17;10.15;;;7.38;;
33190;SDS011;19554;42.652;23.364;2023-04-03T14:26:44;9.52;;;7.50;;
33190;SDS011;19554;42.652;23.364;2023-04-03T14:29:10;11.07;;;7.80;;
33190;SDS011;19554;42.652;23.364;2023-04-03T14:31:36;9.98;;;7.00;;
33190;SDS011;19554;42.652;23.364;2023-04-03T14:34:02;11.27;;;7.25;;
33190;SDS011;19554;42.652;23.364;2023-04-03T14:36:28;8.70;;;5.88;;
33190;SDS011;19554;42.652;23.364;2023-04-03T14:38:56;9.88;;;6.57;;
33190;SDS011;19554;42.652;23.364;2023-04-03T14:41:23;6.40;;;5.50;;
33190;SDS011;19554;42.652;23.364;2023-04-03T14:43:50;10.27;;;6.78;;
33190;SDS011;19554;42.652;23.364;2023-04-03T14:48:43;11.27;;;6.80;;
33190;SDS011;19554;42.652;23.364;2023-04-03T14:51:13;6.90;;;5.22;;
33190;SDS011;19554;42.652;23.364;2023-04-03T14:53:40;16.88;;;8.98;;
33190;SDS011;19554;42.652;23.364;2023-04-03T14:56:11;21.38;;;10.18;;
33190;SDS011;19554;42.652;23.364;2023-04-03T14:58:39;10.98;;;6.03;;
33190;SDS011;19554;42.652;23.364;2023-04-03T15:01:04;7.30;;;5.22;;
33190;SDS011;19554;42.652;23.364;2023-04-03T15:03:30;8.55;;;6.07;;
33190;SDS011;19554;42.652;23.364;2023-04-03T15:05:55;6.97;;;4.78;;
33190;SDS011;19554;42.652;23.364;2023-04-03T15:08:21;9.25;;;5.95;;
33190;SDS011;19554;42.652;23.364;2023-04-03T15:10:50;7.05;;;4.70;;
33190;SDS011;19554;42.652;23.364;2023-04-03T15:13:18;6.53;;;4.93;;
33190;SDS011;19554;42.652;23.364;2023-04-03T15:15:44;7.72;;;5.20;;
33190;SDS011;19554;42.652;23.364;2023-04-03T15:18:14;9.02;;;5.13;;
33190;SDS011;19554;42.652;23.364;2023-04-03T15:20:42;10.02;;;4.90;;
33190;SDS011;19554;42.652;23.364;2023-04-03T15:23:09;7.15;;;4.57;;
33190;SDS011;19554;42.652;23.364;2023-04-03T15:25:36;6.82;;;5.07;;
33190;SDS011;19554;42.652;23.364;2023-04-03T15:28:02;10.07;;;4.60;;
33190;SDS011;19554;42.652;23.364;2023-04-03T15:30:27;8.63;;;5.57;;
33190;SDS011;19554;42.652;23.364;2023-04-03T15:32:53;7.13;;;4.47;;
33190;SDS011;19554;42.652;23.364;2023-04-03T15:35:18;6.90;;;4.88;;
33190;SDS011;19554;42.652;23.364;2023-04-03T15:37:44;7.10;;;5.20;;
33190;SDS011;19554;42.652;23.364;2023-04-03T15:40:10;7.10;;;4.72;;
33190;SDS011;19554;42.652;23.364;2023-04-03T15:42:35;7.35;;;4.32;;
33190;SDS011;19554;42.652;23.364;2023-04-03T15:45:01;6.65;;;4.78;;
33190;SDS011;19554;42.652;23.364;2023-04-03T15:47:27;7.18;;;4.45;;
33190;SDS011;19554;42.652;23.364;2023-04-03T15:49:53;10.68;;;4.50;;
33190;SDS011;19554;42.652;23.364;2023-04-03T15:52:19;5.35;;;4.20;;
33190;SDS011;19554;42.652;23.364;2023-04-03T15:54:45;6.32;;;4.40;;
33190;SDS011;19554;42.652;23.364;2023-04-03T15:57:10;6.93;;;4.65;;
33190;SDS011;19554;42.652;23.364;2023-04-03T15:59:36;5.72;;;4.60;;
33190;SDS011;19554;42.652;23.364;2023-04-03T16:02:01;7.18;;;5.10;;
33190;SDS011;19554;42.652;23.364;2023-04-03T16:04:29;6.90;;;5.57;;
33190;SDS011;19554;42.652;23.364;2023-04-03T16:06:55;8.77;;;6.10;;
33190;SDS011;19554;42.652;23.364;2023-04-03T16:09:21;9.60;;;6.00;;
33190;SDS011;19554;42.652;23.364;2023-04-03T16:11:46;7.43;;;6.40;;
33190;SDS011;19554;42.652;23.364;2023-04-03T16:14:12;11.18;;;7.90;;
33190;SDS011;19554;42.652;23.364;2023-04-03T16:16:37;10.77;;;8.13;;
33190;SDS011;19554;42.652;23.364;2023-04-03T16:19:03;12.15;;;7.20;;
33190;SDS011;19554;42.652;23.364;2023-04-03T16:21:30;8.90;;;7.32;;
33190;SDS011;19554;42.652;23.364;2023-04-03T16:23:57;10.95;;;6.85;;
33190;SDS011;19554;42.652;23.364;2023-04-03T16:26:23;9.73;;;6.82;;
33190;SDS011;19554;42.652;23.364;2023-04-03T16:28:48;7.07;;;5.30;;
33190;SDS011;19554;42.652;23.364;2023-04-03T16:31:14;7.90;;;5.82;;
33190;SDS011;19554;42.652;23.364;2023-04-03T16:33:40;10.20;;;6.00;;
33190;SDS011;19554;42.652;23.364;2023-04-03T16:36:05;9.43;;;5.47;;
33190;SDS011;19554;42.652;23.364;2023-04-03T16:38:31;7.22;;;4.70;;